• Join FlightAware (Why Join?)
  • Login
  • US Flag 
10:22AM EDT


 

Airport Tracker/Info


-or-


 

Live Flight TrackerFlight Track Log ✈ SWA2236 ✈ 07-Jul-2013 ✈ KBWI - KALB

Flight Track Log - Related Links

Times and Time Zones

All times are in EDT time to prevent confusion due to time zone crossing. See the SWA2236 flight status page for this flight to view local times or setup timezone preferences in your user account.

Time Position Orientation Groundspeed Altitude Reporting Facility
EDT Latitude Longitude Course Direction KTS MPH feet Rate Location/Type
11:36PM 39.1833 -76.7167 229° Southwest 153 176 1,900  Level Potomac TRACON
11:37PM 39.1500 -76.7667 229° Southwest 219 252 4,200 2,040 Climbing Potomac TRACON
11:39PM 39.0653 -76.6075 124° Southeast 257 296 8,400 2,640 Climbing Washington Center
11:40PM 39.1017 -76.4983 67° East 275 316 12,600 3,720 Climbing Washington Center
11:41PM 39.1233 -76.3808 77° East 284 327 15,800 2,160 Climbing Washington Center
11:42PM 39.1450 -76.2553 77° East 321 369 17,000 720 Climbing Washington Center
11:43PM 39.1644 -76.1108 80° East 357 411 17,300 1,440 Climbing Washington Center
11:44PM 39.1817 -75.9853 80° East 362 417 19,900 2,100 Climbing Washington Center
11:45PM 39.2131 -75.8594 72° East 367 422 21,600 1,020 Climbing Washington Center
11:46PM 39.2906 -75.7553 46° Northeast 373 429 22,000 420 Climbing Washington Center
11:47PM 39.3697 -75.6533 45° Northeast 383 441 22,500 1,380 Climbing Washington Center
11:48PM 39.4489 -75.5486 46° Northeast 389 448 24,800 2,100 Climbing Washington Center
11:49PM 39.5322 -75.4408 45° Northeast 403 464 26,800 1,260 Climbing Washington Center
11:51PM 39.7356 -75.1683 46° Northeast 467 537 29,000 660 Climbing New York Center
11:52PM 39.8150 -75.0492 49° Northeast 480 552 29,000 -120 Level New York Center
11:53PM 39.9072 -74.9194 47° Northeast 486 559 28,800 -660 Descending New York Center
11:54PM 40.0078 -74.7817 46° Northeast 478 550 27,700 -900 Descending New York Center
11:55PM 40.1331 -74.7131 23° Northeast 486 559 27,000 -360 Descending New York Center
11:56PM 40.2514 -74.6681 16° North 480 552 27,000  Level New York Center
11:57PM 40.3842 -74.6239 14° North 480 552 27,000  Level New York Center
11:58PM 40.5125 -74.5817 14° North 480 552 27,000  Level New York Center
11:59PM 40.6433 -74.5372 14° North 480 552 27,000  Level New York Center
12:00AM 40.7739 -74.4922 15° North 480 552 27,000  Level New York Center
12:02AM 41.0581 -74.3917 15° North 498 573 27,000  Level Boston Center
12:03AM 41.1753 -74.3539 14° North 492 566 27,000  Level Boston Center
12:04AM 41.3139 -74.3000 16° North 479 551 27,000  Level Boston Center
12:05AM 41.4458 -74.2542 15° North 479 551 27,000 -300 Level Boston Center
12:06AM 41.5611 -74.2100 16° North 486 559 26,400 -1,500 Descending Boston Center
12:07AM 41.6850 -74.1581 17° North 479 551 24,100 -2,640 Descending Boston Center
12:08AM 41.7847 -74.0436 41° Northeast 454 522 21,200 -3,000 Descending Boston Center
12:09AM 41.8800 -73.9233 43° Northeast 440 506 18,100 -3,000 Descending Boston Center
12:10AM 41.9786 -73.8839 17° North 404 465 15,300 -3,300 Descending Boston Center
12:11AM 42.0997 -73.8642 North 394 453 11,600 -2,280 Descending Boston Center
12:12AM 42.1936 -73.8525 North 385 443 10,800 -1,260 Descending Boston Center
12:13AM 42.2897 -73.8378 North 334 384 9,100 -1,740 Descending Boston Center
12:14AM 42.3669 -73.8256 North 310 357 7,400 -1,680 Descending Boston Center
12:15AM 42.4567 -73.8133 North 299 344 5,800 -1,200 Descending Boston Center
12:16AM 42.5214 -73.8036 North 281 323 5,000 -1,320 Descending Boston Center
12:17AM 42.5819 -73.7992 North 244 281 3,200 -1,440 Descending Boston Center
12:18AM 42.6550 -73.8008 359° North 223 257 2,200 3,900 Descending Boston Center
12:19AM 42.7175 -73.8022 359° North 223 257 11,000 4,380 Climbing Boston Center
12:20AM 42.7800 -73.8036 359° North 223 257 11,000  Level Boston Center
12:21AM 42.8425 -73.8050 359° North 223 257 11,000  Level Boston Center
12:22AM 42.8925 -73.8061 359° North 223 257 11,000  Level Boston Center